Wetterdaten: aktuell Freitag, 24.11.2017 17:10
Datum Zeit Temp. A. Temp. A. min Feuchte A. Luftdruck Regen Wind Richtung Richtung Sonnenschein Solar Taupunkt Windchill Windben
24.11.2017 17:10 11,7 C 11,7 C 88 % 1012,9 hPa 0,0 l/m 5,4 km/h (1 Bft) S-SW 195 0 min 0 W/m 9,8 C 11,7 C 11,3 km/h (2 Bft)
24.11.2017 17:05 11,7 C 11,7 C 88 % 1013,0 hPa 0,0 l/m 7,9 km/h (2 Bft) S 182 0 min 0 W/m 9,8 C 11,7 C 14,5 km/h (3 Bft)
24.11.2017 17:00 11,8 C 11,8 C 88 % 1012,9 hPa 0,0 l/m 6,8 km/h (2 Bft) S 191 0 min 0 W/m 9,9 C 11,8 C 11,3 km/h (2 Bft)
24.11.2017 16:55 11,8 C 11,8 C 88 % 1012,9 hPa 0,0 l/m 7,2 km/h (2 Bft) S-SW 199 0 min 0 W/m 9,9 C 11,8 C 11,3 km/h (2 Bft)
24.11.2017 16:50 11,9 C 11,8 C 88 % 1013,0 hPa 0,0 l/m 6,2 km/h (2 Bft) S 190 0 min 0 W/m 10,0 C 11,9 C 12,9 km/h (3 Bft)
24.11.2017 16:45 11,9 C 11,8 C 88 % 1012,9 hPa 0,0 l/m 7,1 km/h (2 Bft) S 182 0 min 0 W/m 10,0 C 11,9 C 12,9 km/h (3 Bft)
24.11.2017 16:40 11,9 C 11,8 C 88 % 1012,8 hPa 0,0 l/m 6,3 km/h (2 Bft) S 185 0 min 0 W/m 10,0 C 11,9 C 11,3 km/h (2 Bft)
24.11.2017 16:35 11,9 C 11,9 C 88 % 1012,7 hPa 0,0 l/m 5,2 km/h (1 Bft) S 182 0 min 0 W/m 10,0 C 11,9 C 8,0 km/h (2 Bft)
24.11.2017 16:30 11,9 C 11,9 C 88 % 1012,4 hPa 0,0 l/m 5,8 km/h (2 Bft) S 181 0 min 0 W/m 10,0 C 11,9 C 9,7 km/h (2 Bft)
24.11.2017 16:25 11,9 C 11,9 C 88 % 1012,6 hPa 0,0 l/m 4,8 km/h (1 Bft) S-SW 194 0 min 0 W/m 10,0 C 11,9 C 9,7 km/h (2 Bft)
24.11.2017 16:20 11,9 C 11,9 C 89 % 1012,7 hPa 0,0 l/m 6,1 km/h (2 Bft) S-SO 153 0 min 0 W/m 10,1 C 11,9 C 12,9 km/h (3 Bft)
24.11.2017 16:15 12,0 C 11,9 C 89 % 1012,8 hPa 0,0 l/m 6,0 km/h (2 Bft) S 187 0 min 0 W/m 10,2 C 12,0 C 12,9 km/h (3 Bft)
24.11.2017 16:10 11,9 C 11,9 C 89 % 1012,9 hPa 0,0 l/m 6,3 km/h (2 Bft) S-SO 157 0 min 0 W/m 10,1 C 11,9 C 14,5 km/h (3 Bft)
24.11.2017 16:05 11,9 C 11,9 C 90 % 1012,9 hPa 0,0 l/m 5,5 km/h (1 Bft) S 170 0 min 0 W/m 10,3 C 11,9 C 12,9 km/h (3 Bft)
24.11.2017 16:00 11,9 C 11,9 C 91 % 1012,9 hPa 0,0 l/m 4,9 km/h (1 Bft) S-SW 194 0 min 0 W/m 10,5 C 11,9 C 8,0 km/h (2 Bft)
24.11.2017 15:55 11,9 C 11,8 C 91 % 1013,0 hPa 0,0 l/m 5,5 km/h (1 Bft) S 176 0 min 0 W/m 10,5 C 11,9 C 11,3 km/h (2 Bft)
24.11.2017 15:50 11,8 C 11,8 C 91 % 1012,9 hPa 0,0 l/m 6,2 km/h (2 Bft) S-SO 158 0 min 0 W/m 10,4 C 11,8 C 12,9 km/h (3 Bft)
24.11.2017 15:45 11,8 C 11,8 C 92 % 1013,0 hPa 0,0 l/m 6,1 km/h (2 Bft) S-SO 158 0 min 0 W/m 10,5 C 11,8 C 9,7 km/h (2 Bft)
24.11.2017 15:40 11,9 C 11,8 C 92 % 1012,9 hPa 0,0 l/m 5,6 km/h (1 Bft) S-SW 196 0 min 0 W/m 10,6 C 11,9 C 8,0 km/h (2 Bft)
24.11.2017 15:35 11,8 C 11,8 C 92 % 1013,0 hPa 0,0 l/m 4,5 km/h (1 Bft) S-SO 165 0 min 0 W/m 10,5 C 11,8 C 11,3 km/h (2 Bft)
24.11.2017 15:30 11,9 C 11,8 C 92 % 1013,0 hPa 0,0 l/m 5,1 km/h (1 Bft) S-SW 205 0 min 0 W/m 10,6 C 11,9 C 9,7 km/h (2 Bft)
24.11.2017 15:25 11,9 C 11,9 C 93 % 1013,0 hPa 0,0 l/m 5,7 km/h (1 Bft) S-SW 200 0 min 0 W/m 10,8 C 11,9 C 12,9 km/h (3 Bft)
24.11.2017 15:20 11,9 C 11,9 C 93 % 1013,0 hPa 0,0 l/m 5,2 km/h (1 Bft) S 182 0 min 0 W/m 10,8 C 11,9 C 9,7 km/h (2 Bft)
24.11.2017 15:15 11,9 C 11,9 C 92 % 1013,0 hPa 0,0 l/m 4,6 km/h (1 Bft) S-SW 198 0 min 0 W/m 10,6 C 11,9 C 8,0 km/h (2 Bft)
24.11.2017 15:10 11,9 C 11,9 C 92 % 1013,0 hPa 0,0 l/m 4,1 km/h (1 Bft) S-SW 194 0 min 0 W/m 10,6 C 11,9 C 8,0 km/h (2 Bft)
24.11.2017 15:05 12,0 C 12,0 C 92 % 1012,9 hPa 0,0 l/m 4,0 km/h (1 Bft) S-SO 164 0 min 0 W/m 10,7 C 12,0 C 8,0 km/h (2 Bft)
24.11.2017 15:00 12,1 C 12,1 C 92 % 1012,9 hPa 0,2 l/m 2,9 km/h (1 Bft) S-SW 211 0 min 0 W/m 10,8 C 12,1 C 6,4 km/h (2 Bft)
24.11.2017 14:55 12,1 C 12,1 C 92 % 1012,8 hPa 0,0 l/m 2,3 km/h (1 Bft) S 176 0 min 0 W/m 10,8 C 12,1 C 4,8 km/h (1 Bft)
24.11.2017 14:50 12,2 C 12,2 C 92 % 1012,9 hPa 0,2 l/m 1,2 km/h (1 Bft) SW 221 0 min 0 W/m 10,9 C 12,2 C 3,2 km/h (1 Bft)
24.11.2017 14:45 12,2 C 12,2 C 91 % 1012,9 hPa 0,0 l/m 2,0 km/h (1 Bft) SW 221 0 min 0 W/m 10,8 C 12,2 C 4,8 km/h (1 Bft)
24.11.2017 14:40 12,2 C 12,2 C 91 % 1012,9 hPa 0,0 l/m 4,0 km/h (1 Bft) SW 221 0 min 0 W/m 10,8 C 12,2 C 6,4 km/h (2 Bft)
24.11.2017 14:35 12,3 C 12,2 C 91 % 1012,9 hPa 0,0 l/m 2,1 km/h (1 Bft) SW 221 0 min 0 W/m 10,9 C 12,3 C 4,8 km/h (1 Bft)
24.11.2017 14:30 12,3 C 12,3 C 90 % 1012,8 hPa 0,2 l/m 3,4 km/h (1 Bft) SW 221 0 min 0 W/m 10,7 C 12,3 C 8,0 km/h (2 Bft)
24.11.2017 14:25 12,3 C 12,3 C 90 % 1012,9 hPa 0,0 l/m 4,6 km/h (1 Bft) SW 219 0 min 0 W/m 10,7 C 12,3 C 9,7 km/h (2 Bft)
24.11.2017 14:20 12,4 C 12,4 C 90 % 1012,7 hPa 0,0 l/m 2,3 km/h (1 Bft) SW 223 0 min 0 W/m 10,8 C 12,4 C 4,8 km/h (1 Bft)
24.11.2017 14:15 12,4 C 12,4 C 90 % 1012,5 hPa 0,0 l/m 1,1 km/h (1 Bft) SW 223 0 min 0 W/m 10,8 C 12,4 C 4,8 km/h (1 Bft)
24.11.2017 14:10 12,6 C 12,6 C 89 % 1012,5 hPa 0,0 l/m 0,6 km/h (0 Bft) SW 223 0 min 0 W/m 10,8 C 12,6 C 3,2 km/h (1 Bft)
24.11.2017 14:05 12,7 C 12,7 C 88 % 1012,5 hPa 0,0 l/m 1,5 km/h (1 Bft) SW 223 0 min 0 W/m 10,8 C 12,7 C 3,2 km/h (1 Bft)
24.11.2017 14:00 12,9 C 12,9 C 87 % 1012,5 hPa 0,2 l/m 2,5 km/h (1 Bft) SW 223 0 min 0 W/m 10,8 C 12,9 C 4,8 km/h (1 Bft)
24.11.2017 13:55 13,2 C 13,2 C 84 % 1012,5 hPa 0,0 l/m 0,5 km/h (0 Bft) SW 223 0 min 0 W/m 10,6 C 13,2 C 3,2 km/h (1 Bft)
24.11.2017 13:50 13,6 C 13,6 C 82 % 1012,7 hPa 0,2 l/m 2,5 km/h (1 Bft) SW 223 0 min 0 W/m 10,6 C 13,6 C 4,8 km/h (1 Bft)
24.11.2017 13:45 13,8 C 13,8 C 80 % 1012,7 hPa 0,4 l/m 1,7 km/h (1 Bft) SW 223 0 min 0 W/m 10,4 C 13,8 C 6,4 km/h (2 Bft)
24.11.2017 13:40 14,1 C 14,1 C 78 % 1012,7 hPa 0,2 l/m 4,0 km/h (1 Bft) SW 225 0 min 0 W/m 10,3 C 14,1 C 12,9 km/h (3 Bft)
24.11.2017 13:35 14,3 C 14,3 C 76 % 1012,6 hPa 0,0 l/m 7,1 km/h (2 Bft) SW 223 0 min 0 W/m 10,1 C 14,3 C 12,9 km/h (3 Bft)
24.11.2017 13:30 14,6 C 14,6 C 74 % 1012,3 hPa 0,0 l/m 5,4 km/h (1 Bft) S-SW 210 0 min 0 W/m 10,0 C 14,6 C 11,3 km/h (2 Bft)
24.11.2017 13:25 14,9 C 14,9 C 73 % 1012,3 hPa 0,0 l/m 3,9 km/h (1 Bft) SW 224 0 min 0 W/m 10,1 C 14,9 C 8,0 km/h (2 Bft)
24.11.2017 13:20 15,1 C 15,1 C 70 % 1012,3 hPa 0,0 l/m 2,7 km/h (1 Bft) W 271 0 min 0 W/m 9,7 C 15,1 C 8,0 km/h (2 Bft)
24.11.2017 13:15 15,3 C 15,3 C 67 % 1012,1 hPa 0,0 l/m 2,5 km/h (1 Bft) W 278 0 min 0 W/m 9,2 C 15,3 C 8,0 km/h (2 Bft)
24.11.2017 13:10 15,3 C 15,3 C 64 % 1011,8 hPa 0,0 l/m 5,7 km/h (1 Bft) SW 222 0 min 0 W/m 8,5 C 15,3 C 9,7 km/h (2 Bft)
24.11.2017 13:05 15,4 C 15,4 C 64 % 1011,4 hPa 0,0 l/m 5,1 km/h (1 Bft) S 187 0 min 0 W/m 8,6 C 15,4 C 12,9 km/h (3 Bft)
24.11.2017 13:00 15,6 C 15,6 C 63 % 1011,5 hPa 0,0 l/m 5,8 km/h (2 Bft) S 177 0 min 0 W/m 8,6 C 15,6 C 11,3 km/h (2 Bft)
24.11.2017 12:55 15,7 C 15,7 C 63 % 1011,6 hPa 0,0 l/m 6,4 km/h (2 Bft) S 187 0 min 0 W/m 8,7 C 15,7 C 12,9 km/h (3 Bft)
24.11.2017 12:50 15,8 C 15,8 C 62 % 1011,6 hPa 0,0 l/m 8,2 km/h (2 Bft) S-SW 203 0 min 0 W/m 8,5 C 15,8 C 16,1 km/h (3 Bft)
24.11.2017 12:45 15,9 C 15,8 C 62 % 1011,6 hPa 0,0 l/m 8,0 km/h (2 Bft) S 190 0 min 0 W/m 8,6 C 15,9 C 14,5 km/h (3 Bft)
24.11.2017 12:40 15,8 C 15,8 C 62 % 1011,5 hPa 0,0 l/m 8,5 km/h (2 Bft) SW 215 0 min 0 W/m 8,5 C 15,8 C 16,1 km/h (3 Bft)
24.11.2017 12:35 15,8 C 15,8 C 62 % 1011,4 hPa 0,0 l/m 8,4 km/h (2 Bft) S-SW 200 0 min 0 W/m 8,5 C 15,8 C 19,3 km/h (3 Bft)
24.11.2017 12:30 15,8 C 15,8 C 61 % 1011,5 hPa 0,0 l/m 7,0 km/h (2 Bft) S-SW 199 0 min 0 W/m 8,3 C 15,8 C 19,3 km/h (3 Bft)
24.11.2017 12:25 15,8 C 15,8 C 62 % 1011,5 hPa 0,0 l/m 8,6 km/h (2 Bft) S-SO 163 0 min 0 W/m 8,5 C 15,8 C 17,7 km/h (3 Bft)
24.11.2017 12:20 15,8 C 15,7 C 62 % 1011,5 hPa 0,0 l/m 7,4 km/h (2 Bft) S 180 0 min 0 W/m 8,5 C 15,8 C 16,1 km/h (3 Bft)
24.11.2017 12:15 15,7 C 15,7 C 62 % 1011,6 hPa 0,0 l/m 8,4 km/h (2 Bft) S-SO 165 0 min 0 W/m 8,4 C 15,7 C 19,3 km/h (3 Bft)
24.11.2017 12:10 15,7 C 15,6 C 62 % 1011,6 hPa 0,0 l/m 6,8 km/h (2 Bft) S 190 0 min 0 W/m 8,4 C 15,7 C 14,5 km/h (3 Bft)
24.11.2017 12:05 15,6 C 15,6 C 62 % 1011,5 hPa 0,0 l/m 8,4 km/h (2 Bft) S-SW 204 0 min 0 W/m 8,3 C 15,6 C 16,1 km/h (3 Bft)
24.11.2017 12:00 15,6 C 15,6 C 62 % 1011,6 hPa 0,0 l/m 8,2 km/h (2 Bft) S-SO 155 0 min 0 W/m 8,3 C 15,6 C 16,1 km/h (3 Bft)
24.11.2017 11:55 15,6 C 15,5 C 62 % 1011,7 hPa 0,0 l/m 8,2 km/h (2 Bft) S 186 0 min 0 W/m 8,3 C 15,6 C 17,7 km/h (3 Bft)
24.11.2017 11:50 15,6 C 15,6 C 62 % 1011,7 hPa 0,0 l/m 9,3 km/h (2 Bft) S 170 0 min 0 W/m 8,3 C 15,6 C 17,7 km/h (3 Bft)
24.11.2017 11:45 15,7 C 15,7 C 61 % 1011,7 hPa 0,0 l/m 11,2 km/h (2 Bft) SW 215 0 min 0 W/m 8,2 C 15,7 C 22,5 km/h (4 Bft)
24.11.2017 11:40 15,8 C 15,6 C 62 % 1011,8 hPa 0,0 l/m 10,3 km/h (2 Bft) S-SW 197 0 min 0 W/m 8,5 C 15,8 C 19,3 km/h (3 Bft)
24.11.2017 11:35 15,6 C 15,4 C 63 % 1011,8 hPa 0,0 l/m 9,5 km/h (2 Bft) S-SO 157 0 min 0 W/m 8,6 C 15,6 C 17,7 km/h (3 Bft)
24.11.2017 11:30 15,4 C 15,4 C 62 % 1011,9 hPa 0,0 l/m 9,4 km/h (2 Bft) S 190 0 min 0 W/m 8,2 C 15,4 C 16,1 km/h (3 Bft)
24.11.2017 11:25 15,4 C 15,1 C 63 % 1011,9 hPa 0,0 l/m 8,7 km/h (2 Bft) S-SO 158 0 min 0 W/m 8,4 C 15,4 C 16,1 km/h (3 Bft)
24.11.2017 11:20 15,1 C 14,8 C 64 % 1011,9 hPa 0,0 l/m 7,1 km/h (2 Bft) S 177 0 min 0 W/m 8,3 C 15,1 C 16,1 km/h (3 Bft)
24.11.2017 11:15 14,8 C 14,6 C 65 % 1012,0 hPa 0,0 l/m 8,5 km/h (2 Bft) SW 221 0 min 0 W/m 8,3 C 14,8 C 16,1 km/h (3 Bft)
24.11.2017 11:10 14,7 C 14,7 C 65 % 1012,1 hPa 0,0 l/m 7,7 km/h (2 Bft) S 179 0 min 0 W/m 8,2 C 14,7 C 12,9 km/h (3 Bft)
24.11.2017 11:05 14,7 C 14,6 C 65 % 1012,2 hPa 0,0 l/m 9,5 km/h (2 Bft) O-SO 123 0 min 0 W/m 8,2 C 14,7 C 22,5 km/h (4 Bft)
24.11.2017 11:00 14,6 C 14,4 C 65 % 1012,1 hPa 0,0 l/m 8,4 km/h (2 Bft) SW 226 0 min 0 W/m 8,1 C 14,6 C 16,1 km/h (3 Bft)
24.11.2017 10:55 14,4 C 14,3 C 65 % 1012,1 hPa 0,0 l/m 9,4 km/h (2 Bft) S-SW 194 0 min 0 W/m 7,9 C 14,4 C 20,9 km/h (4 Bft)
24.11.2017 10:50 14,3 C 14,1 C 66 % 1012,2 hPa 0,0 l/m 8,9 km/h (2 Bft) S 181 0 min 0 W/m 8,0 C 14,3 C 16,1 km/h (3 Bft)
24.11.2017 10:45 14,1 C 13,9 C 66 % 1012,2 hPa 0,0 l/m 9,3 km/h (2 Bft) S-SW 193 0 min 0 W/m 7,8 C 14,1 C 22,5 km/h (4 Bft)
24.11.2017 10:40 13,9 C 13,7 C 66 % 1012,3 hPa 0,0 l/m 10,6 km/h (2 Bft) S-SW 212 0 min 0 W/m 7,7 C 13,9 C 19,3 km/h (3 Bft)
24.11.2017 10:35 13,7 C 13,6 C 68 % 1012,2 hPa 0,0 l/m 10,2 km/h (2 Bft) S 186 0 min 0 W/m 7,9 C 13,7 C 19,3 km/h (3 Bft)
24.11.2017 10:30 13,6 C 13,6 C 68 % 1012,2 hPa 0,0 l/m 8,1 km/h (2 Bft) S-SO 152 0 min 0 W/m 7,8 C 13,6 C 16,1 km/h (3 Bft)
24.11.2017 10:25 13,6 C 13,5 C 67 % 1012,2 hPa 0,0 l/m 8,8 km/h (2 Bft) S-SW 193 0 min 0 W/m 7,6 C 13,6 C 17,7 km/h (3 Bft)
24.11.2017 10:20 13,5 C 13,4 C 67 % 1012,2 hPa 0,0 l/m 8,9 km/h (2 Bft) SW 215 0 min 0 W/m 7,5 C 13,5 C 16,1 km/h (3 Bft)
24.11.2017 10:15 13,4 C 13,3 C 67 % 1012,2 hPa 0,0 l/m 10,2 km/h (2 Bft) S-SO 167 0 min 0 W/m 7,4 C 13,4 C 24,1 km/h (4 Bft)
24.11.2017 10:10 13,3 C 13,1 C 68 % 1012,2 hPa 0,0 l/m 9,1 km/h (2 Bft) S-SW 210 0 min 0 W/m 7,5 C 13,3 C 16,1 km/h (3 Bft)
24.11.2017 10:05 13,1 C 12,8 C 69 % 1012,1 hPa 0,0 l/m 10,2 km/h (2 Bft) S-SW 192 0 min 0 W/m 7,5 C 13,1 C 17,7 km/h (3 Bft)
24.11.2017 10:00 12,8 C 12,6 C 69 % 1012,1 hPa 0,0 l/m 9,2 km/h (2 Bft) S 178 0 min 0 W/m 7,3 C 12,8 C 19,3 km/h (3 Bft)
24.11.2017 09:55 12,6 C 12,4 C 70 % 1012,1 hPa 0,0 l/m 10,3 km/h (2 Bft) S-SW 200 0 min 0 W/m 7,3 C 12,6 C 20,9 km/h (4 Bft)
24.11.2017 09:50 12,4 C 12,3 C 71 % 1012,2 hPa 0,0 l/m 9,4 km/h (2 Bft) S 182 0 min 0 W/m 7,3 C 12,4 C 19,3 km/h (3 Bft)
24.11.2017 09:45 12,3 C 12,0 C 71 % 1012,2 hPa 0,0 l/m 10,4 km/h (2 Bft) S 178 0 min 0 W/m 7,2 C 12,3 C 20,9 km/h (4 Bft)
24.11.2017 09:40 12,0 C 11,8 C 72 % 1012,2 hPa 0,0 l/m 9,2 km/h (2 Bft) SO 138 0 min 0 W/m 7,1 C 12,0 C 25,7 km/h (4 Bft)
24.11.2017 09:35 11,8 C 11,7 C 72 % 1012,2 hPa 0,0 l/m 8,8 km/h (2 Bft) S 170 0 min 0 W/m 6,9 C 11,8 C 17,7 km/h (3 Bft)
24.11.2017 09:30 11,7 C 11,6 C 73 % 1012,2 hPa 0,0 l/m 7,1 km/h (2 Bft) S-SO 158 0 min 0 W/m 7,0 C 11,7 C 14,5 km/h (3 Bft)
24.11.2017 09:25 11,6 C 11,4 C 73 % 1012,2 hPa 0,0 l/m 6,9 km/h (2 Bft) SO 142 0 min 0 W/m 6,9 C 11,6 C 19,3 km/h (3 Bft)
24.11.2017 09:20 11,4 C 11,3 C 74 % 1012,2 hPa 0,0 l/m 6,4 km/h (2 Bft) S-SO 161 0 min 0 W/m 6,9 C 11,4 C 11,3 km/h (2 Bft)
24.11.2017 09:15 11,3 C 11,3 C 74 % 1012,2 hPa 0,0 l/m 6,9 km/h (2 Bft) SO 146 0 min 0 W/m 6,8 C 11,3 C 12,9 km/h (3 Bft)
24.11.2017 09:10 11,3 C 11,2 C 74 % 1012,3 hPa 0,0 l/m 6,3 km/h (2 Bft) S-SW 199 0 min 0 W/m 6,8 C 11,3 C 16,1 km/h (3 Bft)
24.11.2017 09:05 11,2 C 11,1 C 75 % 1012,4 hPa 0,0 l/m 6,9 km/h (2 Bft) S 190 0 min 0 W/m 6,9 C 11,2 C 16,1 km/h (3 Bft)
24.11.2017 09:00 11,1 C 11,1 C 75 % 1012,4 hPa 0,0 l/m 6,0 km/h (2 Bft) S-SW 194 0 min 0 W/m 6,8 C 11,1 C 14,5 km/h (3 Bft)
24.11.2017 08:55 11,1 C 10,9 C 75 % 1012,4 hPa 0,0 l/m 7,4 km/h (2 Bft) S-SW 194 0 min 0 W/m 6,8 C 11,1 C 14,5 km/h (3 Bft)
24.11.2017 08:50 10,9 C 10,8 C 76 % 1012,4 hPa 0,0 l/m 7,3 km/h (2 Bft) S-SO 167 0 min 0 W/m 6,8 C 10,9 C 14,5 km/h (3 Bft)
24.11.2017 08:45 10,8 C 10,8 C 76 % 1012,4 hPa 0,0 l/m 8,0 km/h (2 Bft) SO 130 0 min 0 W/m 6,7 C 10,8 C 17,7 km/h (3 Bft)
24.11.2017 08:40 10,8 C 10,8 C 77 % 1012,4 hPa 0,0 l/m 7,1 km/h (2 Bft) SO 142 0 min 0 W/m 6,9 C 10,8 C 12,9 km/h (3 Bft)
24.11.2017 08:35 10,8 C 10,7 C 76 % 1012,4 hPa 0,0 l/m 7,3 km/h (2 Bft) S 177 0 min 0 W/m 6,7 C 10,8 C 16,1 km/h (3 Bft)
24.11.2017 08:30 10,7 C 10,7 C 77 % 1012,5 hPa 0,0 l/m 10,6 km/h (2 Bft) S 174 0 min 0 W/m 6,8 C 10,7 C 19,3 km/h (3 Bft)
24.11.2017 08:25 10,7 C 10,7 C 77 % 1012,4 hPa 0,0 l/m 7,9 km/h (2 Bft) S-SO 164 0 min 0 W/m 6,8 C 10,7 C 16,1 km/h (3 Bft)
24.11.2017 08:20 10,8 C 10,8 C 77 % 1012,4 hPa 0,0 l/m 7,6 km/h (2 Bft) S 188 0 min 0 W/m 6,9 C 10,8 C 12,9 km/h (3 Bft)
24.11.2017 08:15 10,9 C 10,6 C 77 % 1012,4 hPa 0,0 l/m 7,9 km/h (2 Bft) S 180 0 min 0 W/m 7,0 C 10,9 C 17,7 km/h (3 Bft)
24.11.2017 08:10 10,6 C 10,3 C 78 % 1012,3 hPa 0,0 l/m 6,4 km/h (2 Bft) S 184 0 min 0 W/m 6,9 C 10,6 C 14,5 km/h (3 Bft)
24.11.2017 08:05 10,3 C 9,6 C 80 % 1012,3 hPa 0,0 l/m 7,4 km/h (2 Bft) S-SO 153 0 min 0 W/m 7,0 C 10,3 C 17,7 km/h (3 Bft)
24.11.2017 08:00 9,6 C 9,2 C 82 % 1012,3 hPa 0,0 l/m 8,5 km/h (2 Bft) S-SO 149 0 min 0 W/m 6,7 C 8,4 C 17,7 km/h (3 Bft)
24.11.2017 07:55 9,2 C 9,2 C 83 % 1012,3 hPa 0,0 l/m 6,0 km/h (2 Bft) S-SO 159 0 min 0 W/m 6,5 C 8,6 C 20,9 km/h (4 Bft)
24.11.2017 07:50 9,3 C 9,3 C 83 % 1012,4 hPa 0,0 l/m 1,9 km/h (1 Bft) S-SW 204 0 min 0 W/m 6,6 C 9,3 C 4,8 km/h (1 Bft)
24.11.2017 07:45 9,3 C 9,1 C 83 % 1012,3 hPa 0,0 l/m 0,5 km/h (0 Bft) S-SW 205 0 min 0 W/m 6,6 C 9,3 C 1,6 km/h (1 Bft)
24.11.2017 07:40 9,1 C 8,9 C 84 % 1012,4 hPa 0,0 l/m 2,8 km/h (1 Bft) S-SW 205 0 min 0 W/m 6,5 C 9,1 C 6,4 km/h (2 Bft)
24.11.2017 07:35 8,9 C 8,8 C 85 % 1012,3 hPa 0,0 l/m 3,3 km/h (1 Bft) S-SO 153 0 min 0 W/m 6,5 C 8,9 C 9,7 km/h (2 Bft)
24.11.2017 07:30 8,8 C 8,6 C 85 % 1012,2 hPa 0,0 l/m 4,3 km/h (1 Bft) S 186 0 min 0 W/m 6,4 C 8,8 C 9,7 km/h (2 Bft)
24.11.2017 07:25 8,6 C 8,4 C 86 % 1012,1 hPa 0,0 l/m 5,2 km/h (1 Bft) S 180 0 min 0 W/m 6,4 C 8,1 C 8,0 km/h (2 Bft)
24.11.2017 07:20 8,4 C 8,2 C 87 % 1012,1 hPa 0,0 l/m 5,9 km/h (2 Bft) S 184 0 min 0 W/m 6,4 C 7,7 C 12,9 km/h (3 Bft)
24.11.2017 07:15 8,2 C 7,9 C 88 % 1012,1 hPa 0,0 l/m 5,3 km/h (1 Bft) S 191 0 min 0 W/m 6,3 C 7,6 C 9,7 km/h (2 Bft)
24.11.2017 07:10 7,9 C 7,6 C 89 % 1012,0 hPa 0,0 l/m 4,4 km/h (1 Bft) S-SW 197 0 min 0 W/m 6,2 C 7,9 C 9,7 km/h (2 Bft)
24.11.2017 07:05 7,7 C 7,4 C 89 % 1012,0 hPa 0,0 l/m 6,2 km/h (2 Bft) S-SW 210 0 min 0 W/m 6,0 C 6,8 C 11,3 km/h (2 Bft)
24.11.2017 07:00 7,4 C 7,3 C 89 % 1012,1 hPa 0,0 l/m 5,4 km/h (1 Bft) SW 214 0 min 0 W/m 5,7 C 6,7 C 11,3 km/h (2 Bft)
24.11.2017 06:55 7,3 C 7,2 C 89 % 1012,1 hPa 0,0 l/m 4,2 km/h (1 Bft) S-SW 200 0 min 0 W/m 5,6 C 7,3 C 11,3 km/h (2 Bft)
24.11.2017 06:50 7,2 C 7,0 C 89 % 1012,0 hPa 0,0 l/m 2,4 km/h (1 Bft) S 190 0 min 0 W/m 5,5 C 7,2 C 8,0 km/h (2 Bft)
24.11.2017 06:45 7,0 C 6,9 C 90 % 1012,1 hPa 0,0 l/m 1,2 km/h (1 Bft) S-SW 213 0 min 0 W/m 5,5 C 7,0 C 6,4 km/h (2 Bft)
24.11.2017 06:40 6,9 C 6,8 C 90 % 1012,2 hPa 0,0 l/m 1,9 km/h (1 Bft) W-SW 244 0 min 0 W/m 5,4 C 6,9 C 6,4 km/h (2 Bft)
24.11.2017 06:35 6,8 C 6,7 C 90 % 1012,1 hPa 0,0 l/m 2,3 km/h (1 Bft) W 265 0 min 0 W/m 5,3 C 6,8 C 4,8 km/h (1 Bft)
24.11.2017 06:30 6,7 C 6,7 C 89 % 1012,1 hPa 0,0 l/m 0,5 km/h (0 Bft) W-NW 301 0 min 0 W/m 5,0 C 6,7 C 3,2 km/h (1 Bft)
24.11.2017 06:25 6,7 C 6,7 C 89 % 1012,1 hPa 0,0 l/m 0,0 km/h (0 Bft) W-NW 300 0 min 0 W/m 5,0 C 6,7 C 0,0 km/h (0 Bft)
24.11.2017 06:20 6,8 C 6,8 C 90 % 1012,1 hPa 0,0 l/m 1,0 km/h (0 Bft) W-NW 300 0 min 0 W/m 5,3 C 6,8 C 3,2 km/h (1 Bft)
24.11.2017 06:15 6,8 C 6,6 C 90 % 1012,3 hPa 0,0 l/m 2,6 km/h (1 Bft) W-NW 300 0 min 0 W/m 5,3 C 6,8 C 4,8 km/h (1 Bft)
24.11.2017 06:10 6,6 C 6,5 C 90 % 1012,3 hPa 0,0 l/m 2,4 km/h (1 Bft) W-NW 301 0 min 0 W/m 5,1 C 6,6 C 4,8 km/h (1 Bft)
24.11.2017 06:05 6,5 C 6,4 C 91 % 1012,3 hPa 0,0 l/m 0,8 km/h (0 Bft) W-NW 301 0 min 0 W/m 5,1 C 6,5 C 4,8 km/h (1 Bft)
24.11.2017 06:00 6,4 C 6,3 C 91 % 1012,4 hPa 0,0 l/m 1,5 km/h (1 Bft) W-NW 301 0 min 0 W/m 5,0 C 6,4 C 3,2 km/h (1 Bft)
24.11.2017 05:55 6,3 C 6,1 C 92 % 1012,5 hPa 0,0 l/m 1,8 km/h (1 Bft) NW 304 0 min 0 W/m 5,1 C 6,3 C 3,2 km/h (1 Bft)
24.11.2017 05:50 6,1 C 5,8 C 92 % 1012,6 hPa 0,0 l/m 1,7 km/h (1 Bft) NW 304 0 min 0 W/m 4,9 C 6,1 C 4,8 km/h (1 Bft)
24.11.2017 05:45 5,9 C 5,7 C 92 % 1012,6 hPa 0,0 l/m 1,1 km/h (1 Bft) NW 304 0 min 0 W/m 4,7 C 5,9 C 4,8 km/h (1 Bft)
24.11.2017 05:40 5,7 C 5,6 C 92 % 1012,5 hPa 0,0 l/m 0,7 km/h (0 Bft) NW 304 0 min 0 W/m 4,5 C 5,7 C 3,2 km/h (1 Bft)
24.11.2017 05:35 5,6 C 5,4 C 92 % 1012,6 hPa 0,0 l/m 0,2 km/h (0 Bft) NW 304 0 min 0 W/m 4,4 C 5,6 C 3,2 km/h (1 Bft)
24.11.2017 05:30 5,4 C 5,4 C 91 % 1012,6 hPa 0,0 l/m 0,3 km/h (0 Bft) NW 304 0 min 0 W/m 4,1 C 5,4 C 3,2 km/h (1 Bft)
24.11.2017 05:25 5,4 C 5,4 C 91 % 1012,6 hPa 0,0 l/m 0,0 km/h (0 Bft) NW 304 0 min 0 W/m 4,1 C 5,4 C 1,6 km/h (1 Bft)
24.11.2017 05:20 5,5 C 5,5 C 91 % 1012,7 hPa 0,0 l/m 0,9 km/h (0 Bft) NW 304 0 min 0 W/m 4,2 C 5,5 C 3,2 km/h (1 Bft)
24.11.2017 05:15 5,6 C 5,6 C 91 % 1012,7 hPa 0,0 l/m 0,8 km/h (0 Bft) NW 304 0 min 0 W/m 4,2 C 5,6 C 3,2 km/h (1 Bft)
24.11.2017 05:10 5,7 C 5,7 C 91 % 1012,7 hPa 0,0 l/m 0,0 km/h (0 Bft) NW 304 0 min 0 W/m 4,3 C 5,7 C 0,0 km/h (0 Bft)
24.11.2017 05:05 5,7 C 5,7 C 91 % 1012,8 hPa 0,0 l/m 0,3 km/h (0 Bft) NW 304 0 min 0 W/m 4,3 C 5,7 C 3,2 km/h (1 Bft)
24.11.2017 05:00 5,8 C 5,7 C 91 % 1012,9 hPa 0,0 l/m 1,6 km/h (1 Bft) NW 304 0 min 0 W/m 4,4 C 5,8 C 3,2 km/h (1 Bft)
24.11.2017 04:55 5,7 C 5,7 C 91 % 1012,8 hPa 0,0 l/m 1,6 km/h (1 Bft) NW 304 0 min 0 W/m 4,3 C 5,7 C 3,2 km/h (1 Bft)
24.11.2017 04:50 5,7 C 5,7 C 91 % 1012,8 hPa 0,0 l/m 1,2 km/h (1 Bft) NW 304 0 min 0 W/m 4,3 C 5,7 C 3,2 km/h (1 Bft)
24.11.2017 04:45 5,7 C 5,7 C 91 % 1012,8 hPa 0,0 l/m 1,1 km/h (1 Bft) NW 304 0 min 0 W/m 4,3 C 5,7 C 4,8 km/h (1 Bft)
24.11.2017 04:40 5,7 C 5,7 C 91 % 1012,8 hPa 0,0 l/m 0,0 km/h (0 Bft) NW 304 0 min 0 W/m 4,3 C 5,7 C 1,6 km/h (1 Bft)
24.11.2017 04:35 5,7 C 5,7 C 91 % 1012,9 hPa 0,0 l/m 1,1 km/h (1 Bft) NW 304 0 min 0 W/m 4,3 C 5,7 C 3,2 km/h (1 Bft)
24.11.2017 04:30 5,7 C 5,7 C 91 % 1013,0 hPa 0,0 l/m 0,8 km/h (0 Bft) NW 304 0 min 0 W/m 4,3 C 5,7 C 3,2 km/h (1 Bft)
24.11.2017 04:25 5,7 C 5,7 C 91 % 1013,0 hPa 0,0 l/m 0,9 km/h (0 Bft) NW 304 0 min 0 W/m 4,3 C 5,7 C 3,2 km/h (1 Bft)
24.11.2017 04:20 5,7 C 5,7 C 91 % 1013,0 hPa 0,0 l/m 0,4 km/h (0 Bft) NW 304 0 min 0 W/m 4,3 C 5,7 C 3,2 km/h (1 Bft)
24.11.2017 04:15 5,7 C 5,7 C 90 % 1013,0 hPa 0,0 l/m 0,6 km/h (0 Bft) NW 304 0 min 0 W/m 4,2 C 5,7 C 3,2 km/h (1 Bft)
24.11.2017 04:10 5,7 C 5,7 C 90 % 1013,0 hPa 0,0 l/m 0,1 km/h (0 Bft) NW 304 0 min 0 W/m 4,2 C 5,7 C 3,2 km/h (1 Bft)
24.11.2017 04:05 5,8 C 5,8 C 90 % 1013,0 hPa 0,0 l/m 0,7 km/h (0 Bft) NW 304 0 min 0 W/m 4,3 C 5,8 C 4,8 km/h (1 Bft)
24.11.2017 04:00 5,8 C 5,7 C 90 % 1013,1 hPa 0,0 l/m 0,2 km/h (0 Bft) NW 304 0 min 0 W/m 4,3 C 5,8 C 3,2 km/h (1 Bft)
24.11.2017 03:55 5,8 C 5,8 C 90 % 1013,1 hPa 0,0 l/m 0,3 km/h (0 Bft) NW 304 0 min 0 W/m 4,3 C 5,8 C 3,2 km/h (1 Bft)
24.11.2017 03:50 5,8 C 5,8 C 90 % 1013,1 hPa 0,0 l/m 0,1 km/h (0 Bft) NW 304 0 min 0 W/m 4,3 C 5,8 C 1,6 km/h (1 Bft)
24.11.2017 03:45 5,9 C 5,9 C 90 % 1013,1 hPa 0,0 l/m 1,0 km/h (0 Bft) NW 304 0 min 0 W/m 4,4 C 5,9 C 3,2 km/h (1 Bft)
24.11.2017 03:40 5,9 C 5,8 C 90 % 1013,1 hPa 0,0 l/m 0,2 km/h (0 Bft) NW 304 0 min 0 W/m 4,4 C 5,9 C 1,6 km/h (1 Bft)
24.11.2017 03:35 5,8 C 5,8 C 91 % 1013,2 hPa 0,0 l/m 0,2 km/h (0 Bft) NW 304 0 min 0 W/m 4,4 C 5,8 C 3,2 km/h (1 Bft)
24.11.2017 03:30 5,8 C 5,8 C 90 % 1013,2 hPa 0,0 l/m 1,2 km/h (1 Bft) NW 304 0 min 0 W/m 4,3 C 5,8 C 3,2 km/h (1 Bft)
24.11.2017 03:25 5,8 C 5,8 C 90 % 1013,2 hPa 0,0 l/m 0,6 km/h (0 Bft) NW 304 0 min 0 W/m 4,3 C 5,8 C 3,2 km/h (1 Bft)
24.11.2017 03:20 5,8 C 5,8 C 90 % 1013,3 hPa 0,0 l/m 0,6 km/h (0 Bft) NW 304 0 min 0 W/m 4,3 C 5,8 C 3,2 km/h (1 Bft)
24.11.2017 03:15 5,8 C 5,8 C 90 % 1013,4 hPa 0,0 l/m 1,1 km/h (1 Bft) NW 304 0 min 0 W/m 4,3 C 5,8 C 3,2 km/h (1 Bft)
24.11.2017 03:10 5,8 C 5,8 C 90 % 1013,4 hPa 0,0 l/m 2,0 km/h (1 Bft) NW 304 0 min 0 W/m 4,3 C 5,8 C 3,2 km/h (1 Bft)
24.11.2017 03:05 5,8 C 5,8 C 89 % 1013,5 hPa 0,0 l/m 1,4 km/h (1 Bft) NW 304 0 min 0 W/m 4,1 C 5,8 C 3,2 km/h (1 Bft)
24.11.2017 03:00 5,9 C 5,9 C 89 % 1013,4 hPa 0,0 l/m 0,6 km/h (0 Bft) NW 304 0 min 0 W/m 4,2 C 5,9 C 3,2 km/h (1 Bft)
24.11.2017 02:55 5,9 C 5,9 C 89 % 1013,4 hPa 0,0 l/m 1,5 km/h (1 Bft) NW 304 0 min 0 W/m 4,2 C 5,9 C 3,2 km/h (1 Bft)
24.11.2017 02:50 5,9 C 5,9 C 89 % 1013,5 hPa 0,0 l/m 1,7 km/h (1 Bft) NW 304 0 min 0 W/m 4,2 C 5,9 C 3,2 km/h (1 Bft)
24.11.2017 02:45 6,0 C 6,0 C 89 % 1013,4 hPa 0,0 l/m 0,9 km/h (0 Bft) NW 304 0 min 0 W/m 4,3 C 6,0 C 3,2 km/h (1 Bft)
24.11.2017 02:40 6,1 C 6,1 C 89 % 1013,5 hPa 0,0 l/m 0,5 km/h (0 Bft) NW 304 0 min 0 W/m 4,4 C 6,1 C 3,2 km/h (1 Bft)
24.11.2017 02:35 6,1 C 6,1 C 89 % 1013,5 hPa 0,0 l/m 0,0 km/h (0 Bft) NW 304 0 min 0 W/m 4,4 C 6,1 C 0,0 km/h (0 Bft)
24.11.2017 02:30 6,2 C 6,2 C 88 % 1013,5 hPa 0,0 l/m 0,0 km/h (0 Bft) NW 304 0 min 0 W/m 4,4 C 6,2 C 0,0 km/h (0 Bft)
24.11.2017 02:25 6,2 C 6,2 C 89 % 1013,5 hPa 0,0 l/m 0,1 km/h (0 Bft) NW 304 0 min 0 W/m 4,5 C 6,2 C 1,6 km/h (1 Bft)
24.11.2017 02:20 6,2 C 6,2 C 89 % 1013,5 hPa 0,0 l/m 0,0 km/h (0 Bft) NW 304 0 min 0 W/m 4,5 C 6,2 C 0,0 km/h (0 Bft)
24.11.2017 02:15 6,2 C 6,1 C 89 % 1013,6 hPa 0,0 l/m 0,9 km/h (0 Bft) NW 304 0 min 0 W/m 4,5 C 6,2 C 3,2 km/h (1 Bft)
24.11.2017 02:10 6,1 C 6,1 C 89 % 1013,5 hPa 0,0 l/m 1,5 km/h (1 Bft) NW 304 0 min 0 W/m 4,4 C 6,1 C 3,2 km/h (1 Bft)
24.11.2017 02:05 6,1 C 5,9 C 89 % 1013,6 hPa 0,0 l/m 1,7 km/h (1 Bft) NW 304 0 min 0 W/m 4,4 C 6,1 C 3,2 km/h (1 Bft)
24.11.2017 02:00 6,0 C 5,9 C 89 % 1013,5 hPa 0,0 l/m 1,7 km/h (1 Bft) W-NW 303 0 min 0 W/m 4,3 C 6,0 C 3,2 km/h (1 Bft)
24.11.2017 01:55 6,0 C 5,9 C 88 % 1013,5 hPa 0,0 l/m 0,8 km/h (0 Bft) S-SO 153 0 min 0 W/m 4,2 C 6,0 C 3,2 km/h (1 Bft)
24.11.2017 01:50 6,0 C 6,0 C 88 % 1013,5 hPa 0,0 l/m 0,9 km/h (0 Bft) S-SO 157 0 min 0 W/m 4,2 C 6,0 C 3,2 km/h (1 Bft)
24.11.2017 01:45 6,0 C 6,0 C 88 % 1013,6 hPa 0,0 l/m 0,4 km/h (0 Bft) S-SO 157 0 min 0 W/m 4,2 C 6,0 C 3,2 km/h (1 Bft)
24.11.2017 01:40 6,1 C 6,1 C 88 % 1013,5 hPa 0,0 l/m 2,5 km/h (1 Bft) S-SO 157 0 min 0 W/m 4,3 C 6,1 C 6,4 km/h (2 Bft)
24.11.2017 01:35 6,1 C 6,1 C 88 % 1013,4 hPa 0,0 l/m 1,2 km/h (1 Bft) N 355 0 min 0 W/m 4,3 C 6,1 C 4,8 km/h (1 Bft)
24.11.2017 01:30 6,1 C 6,1 C 88 % 1013,5 hPa 0,0 l/m 2,3 km/h (1 Bft) N 355 0 min 0 W/m 4,3 C 6,1 C 4,8 km/h (1 Bft)
24.11.2017 01:25 6,2 C 6,1 C 88 % 1013,5 hPa 0,0 l/m 1,3 km/h (1 Bft) N 355 0 min 0 W/m 4,4 C 6,2 C 3,2 km/h (1 Bft)
24.11.2017 01:20 6,1 C 6,1 C 87 % 1013,6 hPa 0,0 l/m 3,2 km/h (1 Bft) N 355 0 min 0 W/m 4,1 C 6,1 C 6,4 km/h (2 Bft)
24.11.2017 01:15 6,2 C 6,1 C 87 % 1013,6 hPa 0,0 l/m 2,1 km/h (1 Bft) W-NW 295 0 min 0 W/m 4,2 C 6,2 C 4,8 km/h (1 Bft)
24.11.2017 01:10 6,2 C 6,2 C 87 % 1013,6 hPa 0,0 l/m 1,7 km/h (1 Bft) W-NW 295 0 min 0 W/m 4,2 C 6,2 C 3,2 km/h (1 Bft)
24.11.2017 01:05 6,2 C 6,2 C 87 % 1013,7 hPa 0,0 l/m 2,1 km/h (1 Bft) W-NW 295 0 min 0 W/m 4,2 C 6,2 C 4,8 km/h (1 Bft)
24.11.2017 01:00 6,4 C 6,4 C 86 % 1013,7 hPa 0,0 l/m 1,5 km/h (1 Bft) W-NW 294 0 min 0 W/m 4,2 C 6,4 C 3,2 km/h (1 Bft)
24.11.2017 00:55 6,5 C 6,5 C 87 % 1013,7 hPa 0,0 l/m 2,0 km/h (1 Bft) W-NW 295 0 min 0 W/m 4,5 C 6,5 C 3,2 km/h (1 Bft)
24.11.2017 00:50 6,6 C 6,6 C 87 % 1013,7 hPa 0,0 l/m 2,3 km/h (1 Bft) W-NW 295 0 min 0 W/m 4,6 C 6,6 C 4,8 km/h (1 Bft)
24.11.2017 00:45 6,6 C 6,6 C 87 % 1013,6 hPa 0,0 l/m 2,7 km/h (1 Bft) W-NW 295 0 min 0 W/m 4,6 C 6,6 C 4,8 km/h (1 Bft)
24.11.2017 00:40 6,7 C 6,7 C 87 % 1013,6 hPa 0,0 l/m 1,8 km/h (1 Bft) W-NW 283 0 min 0 W/m 4,7 C 6,7 C 4,8 km/h (1 Bft)
24.11.2017 00:35 6,7 C 6,6 C 87 % 1013,6 hPa 0,0 l/m 2,3 km/h (1 Bft) W-NW 283 0 min 0 W/m 4,7 C 6,7 C 4,8 km/h (1 Bft)
24.11.2017 00:30 6,6 C 6,6 C 87 % 1013,6 hPa 0,0 l/m 2,0 km/h (1 Bft) W-SW 256 0 min 0 W/m 4,6 C 6,6 C 4,8 km/h (1 Bft)
24.11.2017 00:25 6,6 C 6,6 C 87 % 1013,6 hPa 0,0 l/m 1,8 km/h (1 Bft) N-NW 332 0 min 0 W/m 4,6 C 6,6 C 4,8 km/h (1 Bft)
24.11.2017 00:20 6,6 C 6,6 C 87 % 1013,6 hPa 0,0 l/m 0,0 km/h (0 Bft) N-NW 332 0 min 0 W/m 4,6 C 6,6 C 0,0 km/h (0 Bft)
24.11.2017 00:15 6,6 C 6,6 C 86 % 1013,6 hPa 0,0 l/m 0,4 km/h (0 Bft) N-NW 332 0 min 0 W/m 4,4 C 6,6 C 3,2 km/h (1 Bft)
24.11.2017 00:10 6,7 C 6,7 C 86 % 1013,6 hPa 0,0 l/m 2,0 km/h (1 Bft) N-NW 332 0 min 0 W/m 4,5 C 6,7 C 3,2 km/h (1 Bft)
24.11.2017 00:05 6,7 C 6,7 C 86 % 1013,7 hPa 0,0 l/m 1,1 km/h (1 Bft) N-NW 332 0 min 0 W/m 4,5 C 6,7 C 4,8 km/h (1 Bft)
24.11.2017 00:00 6,7 C 6,7 C 86 % 1013,7 hPa 0,0 l/m 0,0 km/h (0 Bft) N-NW 333 0 min 0 W/m 4,5 C 6,7 C 1,6 km/h (1 Bft)
_ Min-Zeit 05:25 05:25 11:45 12:35 - 00:00 - - - - 05:25 05:25 00:20
Minimum _ 5,4 C 5,4 C 61 % 1011,4 hPa - 0,0 km/h (0 Bft) - - - - 4,1 C 5,4 C 0,0 km/h (0 Bft)
_ Max-Zeit 12:45 12:25 15:20 00:00 13:45 11:45 - - 00:00 00:00 14:50 12:45 09:40
Maximum _ 15,9 C 15,8 C 93 % 1013,7 hPa 0,4 l/m 11,2 km/h
SW (2 Bft)
- - 0 min 0 W/m 10,9 C 15,9 C 25,7 km/h
S-SO (4 Bft)
Durchschnitt _ 10,0 C 9,9 C 82 % 1012,6 hPa #1,6 l/m 4,2 km/h (1 Bft) S - #0 min. 0 W/m 6,9 C 10,0 C 9,2 km/h (2 Bft)